createdAt,value
2019-05-25T00:01:14.191Z,96511.92
2019-05-25T00:03:40.031Z,96515.22
2019-05-25T00:06:05.982Z,96517.63
2019-05-25T00:08:31.809Z,96512.88
2019-05-25T00:10:57.674Z,96506.48
2019-05-25T00:13:23.519Z,96511.13
2019-05-25T00:15:49.367Z,96506.91
2019-05-25T00:18:15.216Z,96505.36
2019-05-25T00:20:41.045Z,96508.16
2019-05-25T00:23:06.909Z,96499.29
2019-05-25T00:25:32.761Z,96502.05
2019-05-25T00:27:58.606Z,96498.65
2019-05-25T00:30:24.475Z,96498.77
2019-05-25T00:32:50.336Z,96495.53
2019-05-25T00:35:16.206Z,96494.43
2019-05-25T00:37:42.090Z,96490.23
2019-05-25T00:40:08.213Z,96499.00
2019-05-25T00:42:34.070Z,96492.81
2019-05-25T00:44:59.915Z,96498.73
2019-05-25T00:47:25.775Z,96499.30
2019-05-25T00:49:51.611Z,96498.47
2019-05-25T00:52:17.467Z,96494.94
2019-05-25T00:54:43.300Z,96494.52
2019-05-25T00:57:09.234Z,96492.73
2019-05-25T00:59:35.059Z,96498.59
2019-05-25T01:02:00.893Z,96502.60
2019-05-25T01:04:26.763Z,96506.53
2019-05-25T01:06:52.599Z,96504.77
2019-05-25T01:09:18.463Z,96506.53
2019-05-25T01:11:44.299Z,96507.55
2019-05-25T01:14:10.158Z,96510.77
2019-05-25T01:16:36.095Z,96510.55
2019-05-25T01:19:02.042Z,96504.11
2019-05-25T01:21:28.082Z,96508.52
2019-05-25T01:23:53.944Z,96505.45
2019-05-25T01:26:19.788Z,96503.66
2019-05-25T01:28:45.649Z,96504.16
2019-05-25T01:31:11.460Z,96507.65
2019-05-25T01:33:37.320Z,96505.38
2019-05-25T01:36:03.266Z,96499.92
2019-05-25T01:38:29.120Z,96504.96
2019-05-25T01:40:54.966Z,96503.13
2019-05-25T01:43:20.799Z,96509.89
2019-05-25T01:45:46.669Z,96506.98
2019-05-25T01:48:12.508Z,96510.80
2019-05-25T01:50:38.361Z,96500.98
2019-05-25T01:53:04.196Z,96499.36
2019-05-25T01:55:30.269Z,96498.80
2019-05-25T01:57:56.113Z,96504.06
2019-05-25T02:00:22.265Z,96502.73
2019-05-25T02:02:48.158Z,96496.89
2019-05-25T02:05:14.288Z,96498.44
2019-05-25T02:07:40.122Z,96505.54
2019-05-25T02:10:06.881Z,96498.09
2019-05-25T02:12:32.733Z,96501.34
2019-05-25T02:14:58.605Z,96502.04
2019-05-25T02:17:24.453Z,96497.03
2019-05-25T02:19:50.333Z,96506.25
2019-05-25T02:22:16.248Z,96507.88
2019-05-25T02:24:42.476Z,96504.09
2019-05-25T02:27:08.325Z,96506.02
2019-05-25T02:29:34.318Z,96506.23
2019-05-25T02:32:00.155Z,96511.70
2019-05-25T02:34:26.015Z,96504.70
2019-05-25T02:36:51.866Z,96504.02
2019-05-25T02:39:17.713Z,96509.20
2019-05-25T02:41:43.678Z,96503.42
2019-05-25T02:44:09.655Z,96503.71
2019-05-25T02:46:35.531Z,96500.03
2019-05-25T02:49:01.375Z,96499.77
2019-05-25T02:51:27.245Z,96509.02
2019-05-25T02:53:53.061Z,96511.53
2019-05-25T02:56:18.901Z,96511.40
2019-05-25T02:58:44.736Z,96509.56
2019-05-25T03:01:10.599Z,96509.70
2019-05-25T03:03:36.435Z,96513.27
2019-05-25T03:06:04.254Z,96513.11
2019-05-25T03:08:30.361Z,96508.53
2019-05-25T03:10:56.344Z,96499.95
2019-05-25T03:13:22.284Z,96499.95
2019-05-25T03:15:48.317Z,96506.31
2019-05-25T03:18:14.247Z,96499.66
2019-05-25T03:20:40.208Z,96499.66
2019-05-25T03:23:06.103Z,96513.70
2019-05-25T03:25:31.962Z,96507.55
2019-05-25T03:27:57.870Z,96508.98
2019-05-25T03:30:32.166Z,96513.40
2019-05-25T03:32:58.054Z,96506.76
2019-05-25T03:35:23.897Z,96506.76
2019-05-25T03:37:49.762Z,96505.89
2019-05-25T03:40:15.689Z,96501.48
2019-05-25T03:42:41.550Z,96511.77
2019-05-25T03:45:07.707Z,96514.02
2019-05-25T03:47:33.566Z,96507.70
2019-05-25T03:49:59.390Z,96501.30
2019-05-25T03:52:25.258Z,96514.84
2019-05-25T03:54:51.108Z,96511.33
2019-05-25T03:57:16.955Z,96512.30
2019-05-25T03:59:42.881Z,96514.94
2019-05-25T04:02:08.731Z,96516.23
2019-05-25T04:04:34.612Z,96517.69
2019-05-25T04:07:00.470Z,96512.66
2019-05-25T04:09:26.315Z,96509.62
2019-05-25T04:11:52.141Z,96513.14
2019-05-25T04:14:17.989Z,96509.66
2019-05-25T04:16:43.835Z,96511.98
2019-05-25T04:19:09.683Z,96516.36
2019-05-25T04:21:35.529Z,96520.13
2019-05-25T04:24:01.395Z,96522.73
2019-05-25T04:26:27.676Z,96520.70
2019-05-25T04:28:56.490Z,96509.45
2019-05-25T04:31:25.619Z,96510.61
2019-05-25T04:33:51.682Z,96517.02
2019-05-25T04:36:17.791Z,96514.69
2019-05-25T04:38:43.668Z,96515.02
2019-05-25T04:41:09.509Z,96527.14
2019-05-25T04:43:35.342Z,96519.38
2019-05-25T04:46:01.220Z,96521.12
2019-05-25T04:48:27.048Z,96523.67
2019-05-25T04:50:52.910Z,96524.77
2019-05-25T04:53:18.893Z,96526.72
2019-05-25T04:55:44.738Z,96535.63
2019-05-25T04:58:10.598Z,96533.67
2019-05-25T05:00:36.478Z,96535.64
2019-05-25T05:03:02.309Z,96537.31
2019-05-25T05:05:28.166Z,96536.91
2019-05-25T05:07:54.062Z,96539.27
2019-05-25T05:10:19.920Z,96547.20
2019-05-25T05:12:45.787Z,96545.47
2019-05-25T05:15:11.853Z,96543.36
2019-05-25T05:17:38.015Z,96543.47
2019-05-25T05:20:05.784Z,96542.56
2019-05-25T05:22:31.638Z,96537.62
2019-05-25T05:24:57.491Z,96537.62
2019-05-25T05:27:23.431Z,96548.58
2019-05-25T05:29:49.323Z,96545.59
2019-05-25T05:32:26.982Z,96541.86
2019-05-25T05:34:42.908Z,96544.39
2019-05-25T05:37:09.374Z,96541.82
2019-05-25T05:39:35.313Z,96542.71
2019-05-25T05:42:01.326Z,96541.70
2019-05-25T05:44:27.302Z,96542.33
2019-05-25T05:46:55.557Z,96546.03
2019-05-25T05:49:22.815Z,96543.80
2019-05-25T05:51:48.677Z,96535.87
2019-05-25T05:54:15.569Z,96539.24
2019-05-25T05:56:41.424Z,96545.91
2019-05-25T05:59:07.253Z,96546.59
2019-05-25T06:01:33.183Z,96549.34
2019-05-25T06:03:59.107Z,96550.80
2019-05-25T06:06:24.925Z,96549.18
2019-05-25T06:08:50.782Z,96550.38
2019-05-25T06:11:16.660Z,96553.34
2019-05-25T06:13:42.501Z,96559.84
2019-05-25T06:16:08.359Z,96559.38
2019-05-25T06:18:34.195Z,96556.36
2019-05-25T06:21:00.065Z,96557.92
2019-05-25T06:23:25.908Z,96557.56
2019-05-25T06:25:52.578Z,96553.92
2019-05-25T06:28:22.369Z,96552.72
2019-05-25T06:30:47.977Z,96546.10
2019-05-25T06:33:13.828Z,96552.14
2019-05-25T06:35:40.099Z,96557.56
2019-05-25T06:38:06.071Z,96550.14
2019-05-25T06:40:32.029Z,96554.23
2019-05-25T06:42:57.895Z,96557.42
2019-05-25T06:45:23.724Z,96559.09
2019-05-25T06:47:49.603Z,96561.70
2019-05-25T06:50:15.741Z,96561.59
2019-05-25T06:52:41.645Z,96570.25
2019-05-25T06:55:07.712Z,96567.45
2019-05-25T06:57:42.635Z,96572.02
2019-05-25T07:00:03.866Z,96567.52
2019-05-25T07:02:29.741Z,96576.63
2019-05-25T07:04:55.722Z,96577.67
2019-05-25T07:07:21.593Z,96577.60
2019-05-25T07:09:47.466Z,96580.66
2019-05-25T07:12:13.320Z,96581.63
2019-05-25T07:14:39.291Z,96580.09
2019-05-25T07:17:05.243Z,96588.94
2019-05-25T07:19:31.112Z,96585.75
2019-05-25T07:21:56.978Z,96588.16
2019-05-25T07:24:22.840Z,96590.49
2019-05-25T07:26:48.671Z,96593.31
2019-05-25T07:29:14.544Z,96591.74
2019-05-25T07:31:40.375Z,96588.95
2019-05-25T07:34:06.223Z,96593.77
2019-05-25T07:36:32.247Z,96596.66
2019-05-25T07:38:58.139Z,96597.89
2019-05-25T07:41:24.023Z,96595.84
2019-05-25T07:43:49.914Z,96599.51
2019-05-25T07:46:17.254Z,96598.12
2019-05-25T07:48:43.306Z,96599.81
2019-05-25T07:51:09.196Z,96593.92
2019-05-25T07:53:35.085Z,96596.06
2019-05-25T07:56:00.943Z,96594.56
2019-05-25T07:58:26.803Z,96600.49
2019-05-25T08:00:52.660Z,96601.20
2019-05-25T08:03:18.530Z,96601.36
2019-05-25T08:05:44.414Z,96596.77
2019-05-25T08:08:10.278Z,96585.39
2019-05-25T08:10:36.159Z,96591.78
2019-05-25T08:13:02.013Z,96597.83
2019-05-25T08:15:27.893Z,96594.89
2019-05-25T08:17:53.752Z,96601.05
2019-05-25T08:20:19.794Z,96596.30
2019-05-25T08:22:45.753Z,96594.31
2019-05-25T08:25:12.028Z,96596.42
2019-05-25T08:27:37.920Z,96596.95
2019-05-25T08:30:05.812Z,96587.01
2019-05-25T08:32:31.688Z,96590.03
2019-05-25T08:34:57.545Z,96589.02
2019-05-25T08:37:23.431Z,96588.75
2019-05-25T08:39:49.271Z,96587.98
2019-05-25T08:42:15.128Z,96588.86
2019-05-25T08:44:40.995Z,96587.81
2019-05-25T08:47:06.843Z,96588.89
2019-05-25T08:49:32.737Z,96580.20
2019-05-25T08:51:58.605Z,96583.95
2019-05-25T08:54:24.612Z,96583.64
2019-05-25T08:56:50.506Z,96575.39
2019-05-25T08:59:16.357Z,96571.63
2019-05-25T09:01:42.321Z,96582.45
2019-05-25T09:04:08.256Z,96578.13
2019-05-25T09:06:34.204Z,96578.31
2019-05-25T09:09:00.050Z,96575.23
2019-05-25T09:11:26.030Z,96578.93
2019-05-25T09:13:51.932Z,96582.21
2019-05-25T09:16:17.761Z,96579.48
2019-05-25T09:18:43.617Z,96586.39
2019-05-25T09:21:09.513Z,96589.73
2019-05-25T09:23:35.358Z,96586.23
2019-05-25T09:26:01.327Z,96591.27
2019-05-25T09:28:27.222Z,96579.86
2019-05-25T09:30:53.214Z,96588.95
2019-05-25T09:33:19.086Z,96584.83
2019-05-25T09:35:44.961Z,96591.17
2019-05-25T09:38:10.824Z,96592.31
2019-05-25T09:40:36.680Z,96587.88
2019-05-25T09:43:02.620Z,96594.31
2019-05-25T09:45:30.477Z,96592.48
2019-05-25T09:47:56.510Z,96592.48
2019-05-25T09:50:22.345Z,96591.23
2019-05-25T09:52:48.272Z,96596.53
2019-05-25T09:55:15.302Z,96594.26
2019-05-25T09:57:41.987Z,96599.03
2019-05-25T10:00:09.478Z,96601.42
2019-05-25T10:02:35.444Z,96598.55
2019-05-25T10:05:01.411Z,96602.98
2019-05-25T10:07:27.274Z,96603.74
2019-05-25T10:09:53.147Z,96597.04
2019-05-25T10:12:19.016Z,96604.55
2019-05-25T10:14:44.883Z,96604.55
2019-05-25T10:17:10.752Z,96598.77
2019-05-25T10:19:36.621Z,96601.37
2019-05-25T10:22:03.615Z,96595.18
2019-05-25T10:24:29.466Z,96593.34
2019-05-25T10:26:55.317Z,96594.52
2019-05-25T10:29:35.983Z,96598.38
2019-05-25T10:31:49.108Z,96598.12
2019-05-25T10:34:14.986Z,96594.00
2019-05-25T10:36:40.915Z,96588.63
2019-05-25T10:39:06.772Z,96595.88
2019-05-25T10:41:32.656Z,96590.80
2019-05-25T10:43:58.510Z,96595.48
2019-05-25T10:46:24.489Z,96588.76
2019-05-25T10:48:50.405Z,96582.86
2019-05-25T10:51:16.287Z,96583.62
2019-05-25T10:53:42.135Z,96585.67
2019-05-25T10:56:07.992Z,96579.23
2019-05-25T10:58:33.824Z,96579.67
2019-05-25T11:00:59.691Z,96571.63
2019-05-25T11:03:25.548Z,96571.92
2019-05-25T11:05:51.404Z,96568.95
2019-05-25T11:08:17.257Z,96561.16
2019-05-25T11:10:43.129Z,96558.99
2019-05-25T11:13:08.960Z,96552.52
2019-05-25T11:15:34.792Z,96560.80
2019-05-25T11:18:00.632Z,96559.73
2019-05-25T11:20:26.494Z,96559.06
2019-05-25T11:22:52.322Z,96563.66
2019-05-25T11:25:18.176Z,96560.44
2019-05-25T11:27:44.012Z,96556.52
2019-05-25T11:30:10.715Z,96551.98
2019-05-25T11:32:36.666Z,96547.68
2019-05-25T11:35:05.016Z,96549.69
2019-05-25T11:37:30.899Z,96546.92
2019-05-25T11:39:56.731Z,96554.42
2019-05-25T11:42:22.642Z,96549.66
2019-05-25T11:44:48.531Z,96546.95
2019-05-25T11:47:14.416Z,96540.30
2019-05-25T11:49:40.251Z,96535.27
2019-05-25T11:52:06.122Z,96541.34
2019-05-25T11:54:31.944Z,96554.78
2019-05-25T11:56:57.828Z,96542.88
2019-05-25T11:59:23.695Z,96549.66
2019-05-25T12:01:49.564Z,96547.21
2019-05-25T12:04:15.436Z,96546.23
2019-05-25T12:06:41.287Z,96542.91
2019-05-25T12:09:07.319Z,96545.05
2019-05-25T12:11:33.296Z,96543.70
2019-05-25T12:13:59.124Z,96547.91
2019-05-25T12:16:24.997Z,96543.50
2019-05-25T12:18:50.872Z,96544.29
2019-05-25T12:21:16.703Z,96544.08
2019-05-25T12:23:42.600Z,96556.83
2019-05-25T12:26:08.455Z,96535.49
2019-05-25T12:28:34.320Z,96545.75
2019-05-25T12:31:00.173Z,96545.19
2019-05-25T12:33:26.262Z,96551.45
2019-05-25T12:35:52.426Z,96542.77
2019-05-25T12:38:18.292Z,96540.85
2019-05-25T12:40:53.315Z,96533.30
2019-05-25T12:43:11.898Z,96536.27
2019-05-25T12:45:37.755Z,96536.28
2019-05-25T12:48:03.849Z,96534.36
2019-05-25T12:50:29.668Z,96535.57
2019-05-25T12:52:55.549Z,96539.09
2019-05-25T12:55:21.448Z,96526.83
2019-05-25T12:57:47.325Z,96526.83
2019-05-25T13:00:15.937Z,96533.63
2019-05-25T13:02:40.956Z,96524.09
2019-05-25T13:05:07.515Z,96532.58
2019-05-25T13:07:33.371Z,96532.33
2019-05-25T13:09:59.233Z,96534.73
2019-05-25T13:12:25.202Z,96522.74
2019-05-25T13:14:51.061Z,96521.78
2019-05-25T13:17:16.933Z,96525.00
2019-05-25T13:19:42.822Z,96529.98
2019-05-25T13:22:08.686Z,96529.69
2019-05-25T13:24:34.539Z,96526.82
2019-05-25T13:27:00.503Z,96523.81
2019-05-25T13:29:26.327Z,96521.41
2019-05-25T13:31:52.165Z,96525.09
2019-05-25T13:34:18.059Z,96525.96
2019-05-25T13:36:43.931Z,96524.45
2019-05-25T13:39:09.757Z,96534.04
2019-05-25T13:41:35.604Z,96544.24
2019-05-25T13:44:01.460Z,96546.92
2019-05-25T13:46:27.618Z,96540.73
2019-05-25T13:48:53.463Z,96539.31
2019-05-25T13:51:19.634Z,96537.61
2019-05-25T13:53:45.471Z,96543.58
2019-05-25T13:56:11.358Z,96542.62
2019-05-25T13:58:39.137Z,96544.22
2019-05-25T14:01:04.986Z,96540.15
2019-05-25T14:03:30.816Z,96541.73
2019-05-25T14:05:56.689Z,96539.84
2019-05-25T14:08:22.541Z,96550.89
2019-05-25T14:10:48.410Z,96536.65
2019-05-25T14:13:14.246Z,96528.28
2019-05-25T14:15:40.144Z,96539.97
2019-05-25T14:18:05.982Z,96544.83
2019-05-25T14:20:31.843Z,96549.39
2019-05-25T14:22:57.677Z,96557.28
2019-05-25T14:25:23.526Z,96563.24
2019-05-25T14:27:49.360Z,96571.76
2019-05-25T14:30:15.666Z,96577.27
2019-05-25T14:32:41.491Z,96586.67
2019-05-25T14:35:07.649Z,96590.84
2019-05-25T14:37:33.540Z,96589.31
2019-05-25T14:39:59.587Z,96604.30
2019-05-25T14:42:25.464Z,96597.88
2019-05-25T14:44:51.388Z,96609.50
2019-05-25T14:47:17.607Z,96609.98
2019-05-25T14:49:43.460Z,96607.58
2019-05-25T14:52:11.739Z,96612.19
2019-05-25T14:54:37.930Z,96602.22
2019-05-25T14:57:04.767Z,96612.20
2019-05-25T14:59:32.733Z,96605.30
2019-05-25T15:02:02.452Z,96600.75
2019-05-25T15:04:26.852Z,96595.13
2019-05-25T15:06:52.707Z,96594.89
2019-05-25T15:09:18.665Z,96588.34
2019-05-25T15:11:44.531Z,96591.12
2019-05-25T15:14:10.428Z,96592.86
2019-05-25T15:16:36.390Z,96580.42
2019-05-25T15:19:02.755Z,96584.45
2019-05-25T15:21:28.620Z,96586.58
2019-05-25T15:23:54.490Z,96593.69
2019-05-25T15:26:20.327Z,96588.14
2019-05-25T15:28:46.238Z,96585.08
2019-05-25T15:31:12.086Z,96585.16
2019-05-25T15:33:37.963Z,96566.95
2019-05-25T15:36:03.847Z,96562.83
2019-05-25T15:38:29.687Z,96557.86
2019-05-25T15:40:55.560Z,96559.08
2019-05-25T15:43:21.388Z,96555.75
2019-05-25T15:45:47.225Z,96558.88
2019-05-25T15:48:13.071Z,96554.71
2019-05-25T15:50:38.939Z,96553.73
2019-05-25T15:53:04.998Z,96551.94
2019-05-25T15:55:30.872Z,96555.09
2019-05-25T15:57:56.744Z,96562.66
2019-05-25T16:00:43.085Z,96560.13
2019-05-25T16:03:09.064Z,96565.59
2019-05-25T16:05:34.916Z,96561.71
2019-05-25T16:08:01.659Z,96564.86
2019-05-25T16:10:27.644Z,96569.60
2019-05-25T16:12:53.516Z,96565.53
2019-05-25T16:15:26.539Z,96565.14
2019-05-25T16:17:52.458Z,96573.11
2019-05-25T16:20:21.036Z,96562.00
2019-05-25T16:22:46.901Z,96566.34
2019-05-25T16:25:12.770Z,96567.28
2019-05-25T16:27:38.629Z,96565.92
2019-05-25T16:30:07.779Z,96567.49
2019-05-25T16:32:33.631Z,96566.72
2019-05-25T16:34:59.487Z,96571.13
2019-05-25T16:37:25.441Z,96569.16
2019-05-25T16:39:51.329Z,96575.90
2019-05-25T16:42:17.167Z,96576.12
2019-05-25T16:44:43.015Z,96577.43
2019-05-25T16:47:08.861Z,96582.43
2019-05-25T16:49:34.736Z,96583.76
2019-05-25T16:52:00.567Z,96585.52
2019-05-25T16:54:26.547Z,96588.22
2019-05-25T16:56:52.409Z,96586.48
2019-05-25T16:59:18.234Z,96592.84
2019-05-25T17:01:48.526Z,96596.66
2019-05-25T17:04:11.992Z,96595.53
2019-05-25T17:06:37.976Z,96602.61
2019-05-25T17:09:05.332Z,96595.70
2019-05-25T17:11:31.413Z,96602.42
2019-05-25T17:13:57.285Z,96601.66
2019-05-25T17:16:23.146Z,96597.23
2019-05-25T17:18:48.983Z,96598.58
2019-05-25T17:21:14.829Z,96598.59
2019-05-25T17:23:40.710Z,96603.20
2019-05-25T17:26:06.596Z,96602.44
2019-05-25T17:28:32.459Z,96604.74
2019-05-25T17:30:58.340Z,96606.59
2019-05-25T17:33:24.211Z,96612.97
2019-05-25T17:35:50.189Z,96600.04
2019-05-25T17:38:16.252Z,96607.61
2019-05-25T17:40:42.077Z,96609.08
2019-05-25T17:43:08.047Z,96611.45
2019-05-25T17:45:34.003Z,96612.09
2019-05-25T17:47:59.860Z,96613.15
2019-05-25T17:50:25.721Z,96609.55
2019-05-25T17:52:51.588Z,96610.31
2019-05-25T17:55:17.554Z,96609.50
2019-05-25T17:57:43.438Z,96606.29
2019-05-25T18:00:10.399Z,96608.73
2019-05-25T18:02:36.281Z,96607.06
2019-05-25T18:05:05.989Z,96611.32
2019-05-25T18:07:31.880Z,96608.47
2019-05-25T18:09:57.748Z,96607.19
2019-05-25T18:12:23.624Z,96606.42
2019-05-25T18:14:49.493Z,96606.04
2019-05-25T18:17:15.345Z,96604.91
2019-05-25T18:19:41.205Z,96607.39
2019-05-25T18:22:07.070Z,96604.90
2019-05-25T18:24:32.895Z,96606.22
2019-05-25T18:26:58.774Z,96603.91
2019-05-25T18:29:24.611Z,96605.09
2019-05-25T18:31:50.443Z,96607.16
2019-05-25T18:34:21.974Z,96606.61
2019-05-25T18:36:44.176Z,96602.36
2019-05-25T18:39:10.155Z,96597.36
2019-05-25T18:41:35.984Z,96603.33
2019-05-25T18:44:01.961Z,96605.56
2019-05-25T18:48:53.633Z,96598.86
2019-05-25T18:51:19.473Z,96604.72
2019-05-25T18:53:45.482Z,96603.59
2019-05-25T18:56:11.354Z,96606.63
2019-05-25T18:58:37.236Z,96606.20
2019-05-25T19:01:03.184Z,96605.63
2019-05-25T19:03:29.047Z,96606.98
2019-05-25T19:05:54.878Z,96602.70
2019-05-25T19:08:20.755Z,96598.23
2019-05-25T19:10:46.573Z,96597.21
2019-05-25T19:13:12.429Z,96600.20
2019-05-25T19:15:38.393Z,96599.63
2019-05-25T19:18:04.253Z,96600.67
2019-05-25T19:20:30.121Z,96602.09
2019-05-25T19:22:55.971Z,96603.42
2019-05-25T19:25:21.839Z,96596.57
2019-05-25T19:27:47.683Z,96607.53
2019-05-25T19:30:14.162Z,96606.85
2019-05-25T19:32:40.050Z,96608.05
2019-05-25T19:35:07.001Z,96609.46
2019-05-25T19:37:32.993Z,96617.87
2019-05-25T19:39:58.880Z,96615.80
2019-05-25T19:42:24.879Z,96619.61
2019-05-25T19:44:50.735Z,96617.44
2019-05-25T19:47:16.708Z,96621.66
2019-05-25T19:49:43.365Z,96622.67
2019-05-25T19:52:09.432Z,96623.56
2019-05-25T19:54:35.289Z,96632.75
2019-05-25T19:57:01.539Z,96637.69
2019-05-25T19:59:27.378Z,96628.30
2019-05-25T20:01:53.244Z,96630.45
2019-05-25T20:04:19.122Z,96625.22
2019-05-25T20:06:45.025Z,96633.80
2019-05-25T20:09:10.881Z,96632.47
2019-05-25T20:11:36.732Z,96638.14
2019-05-25T20:14:03.033Z,96640.55
2019-05-25T20:16:28.908Z,96644.61
2019-05-25T20:18:54.767Z,96650.83
2019-05-25T20:21:20.717Z,96655.09
2019-05-25T20:23:46.549Z,96656.38
2019-05-25T20:26:12.413Z,96666.03
2019-05-25T20:28:38.274Z,96663.21
2019-05-25T20:31:04.222Z,96672.02
2019-05-25T20:33:30.125Z,96667.56
2019-05-25T20:35:56.220Z,96675.50
2019-05-25T20:38:22.069Z,96673.05
2019-05-25T20:40:48.027Z,96677.66
2019-05-25T20:43:13.892Z,96671.65
2019-05-25T20:45:39.764Z,96678.12
2019-05-25T20:48:05.655Z,96670.37
2019-05-25T20:50:31.501Z,96677.34
2019-05-25T20:52:57.380Z,96683.11
2019-05-25T20:55:23.281Z,96681.10
2019-05-25T20:57:49.145Z,96676.38
2019-05-25T21:00:15.298Z,96684.56
2019-05-25T21:02:41.242Z,96680.56
2019-05-25T21:05:07.278Z,96686.37
2019-05-25T21:07:33.344Z,96690.31
2019-05-25T21:09:59.213Z,96693.35
2019-05-25T21:12:25.067Z,96692.52
2019-05-25T21:14:50.929Z,96693.34
2019-05-25T21:17:16.809Z,96699.23
2019-05-25T21:19:42.645Z,96702.09
2019-05-25T21:22:08.521Z,96699.94
2019-05-25T21:24:34.347Z,96705.03
2019-05-25T21:27:00.180Z,96700.41
2019-05-25T21:29:26.119Z,96693.69
2019-05-25T21:31:51.982Z,96704.34
2019-05-25T21:34:20.728Z,96708.20
2019-05-25T21:36:46.577Z,96710.02
2019-05-25T21:39:12.414Z,96704.06
2019-05-25T21:41:38.373Z,96708.75
2019-05-25T21:44:04.239Z,96705.39
2019-05-25T21:46:30.056Z,96706.63
2019-05-25T21:48:55.905Z,96704.66
2019-05-25T21:51:21.801Z,96707.24
2019-05-25T21:53:47.674Z,96710.69
2019-05-25T21:56:13.550Z,96709.63
2019-05-25T21:58:39.401Z,96709.63
2019-05-25T22:01:05.426Z,96712.36
2019-05-25T22:03:31.407Z,96710.07
2019-05-25T22:05:57.336Z,96711.24
2019-05-25T22:08:23.189Z,96705.23
2019-05-25T22:10:49.063Z,96691.81
2019-05-25T22:13:26.832Z,96705.49
2019-05-25T22:15:42.634Z,96705.53
2019-05-25T22:18:08.510Z,96708.73
2019-05-25T22:20:34.341Z,96706.14
2019-05-25T22:23:00.171Z,96706.80
2019-05-25T22:25:26.010Z,96710.16
2019-05-25T22:27:51.836Z,96707.00
2019-05-25T22:30:19.202Z,96707.09
2019-05-25T22:32:45.887Z,96705.20
2019-05-25T22:35:12.530Z,96709.88
2019-05-25T22:37:38.358Z,96710.23
2019-05-25T22:40:06.477Z,96712.28
2019-05-25T22:42:32.428Z,96718.67
2019-05-25T22:44:58.291Z,96719.17
2019-05-25T22:47:24.125Z,96719.94
2019-05-25T22:49:49.972Z,96714.72
2019-05-25T22:52:15.822Z,96721.09
2019-05-25T22:54:41.650Z,96716.50
2019-05-25T22:57:07.516Z,96719.77
2019-05-25T22:59:33.362Z,96713.63
2019-05-25T23:01:59.209Z,96720.48
2019-05-25T23:04:25.054Z,96718.72
2019-05-25T23:06:57.845Z,96713.08
2019-05-25T23:09:18.659Z,96711.63
2019-05-25T23:11:44.525Z,96712.96
2019-05-25T23:14:10.331Z,96721.25
2019-05-25T23:16:36.179Z,96715.73
2019-05-25T23:19:02.018Z,96717.20
2019-05-25T23:21:27.866Z,96721.19
2019-05-25T23:23:53.696Z,96720.59
2019-05-25T23:26:19.565Z,96721.71
2019-05-25T23:28:45.513Z,96721.61
2019-05-25T23:31:11.366Z,96720.30
2019-05-25T23:33:37.219Z,96722.94
2019-05-25T23:36:03.081Z,96727.92
2019-05-25T23:38:28.918Z,96731.20
2019-05-25T23:40:54.745Z,96730.88
2019-05-25T23:43:20.728Z,96725.14
2019-05-25T23:45:47.062Z,96718.77
2019-05-25T23:48:12.921Z,96721.69
2019-05-25T23:50:38.753Z,96722.34
2019-05-25T23:53:04.697Z,96726.13
2019-05-25T23:55:30.526Z,96717.92
2019-05-25T23:57:56.380Z,96719.34
